Time,TemperatureF,DewpointF,PressureIn,WindDirection,WindDirectionDegrees,WindSpeedMPH,WindSpeedGustMPH,Humidity,HourlyPrecipIn,Conditions,Clouds,dailyrainin,SoftwareType,DateUTC
2013-04-10 00:00:00,46.0,43.0,29.95,NE,45,2.0,4.0,89,0.00,,,0.02,meteohub,2013-04-10 04:00:00,
2013-04-10 00:01:00,46.0,43.0,29.95,NE,45,2.0,4.0,89,0.00,,,0.02,meteohub,2013-04-10 04:01:00,
2013-04-10 00:07:00,46.0,43.0,29.96,NE,45,2.0,6.0,89,0.00,,,0.00,meteohub,2013-04-10 04:07:00,
2013-04-10 00:12:00,45.7,42.6,29.95,NE,45,4.0,6.0,89,0.00,,,0.00,meteohub,2013-04-10 04:12:00,
2013-04-10 00:17:00,45.7,42.3,29.95,East,90,3.0,7.0,88,0.00,,,0.00,meteohub,2013-04-10 04:17:00,
2013-04-10 00:22:00,45.5,42.1,29.94,South,180,2.0,7.0,88,0.00,,,0.00,meteohub,2013-04-10 04:22:00,
2013-04-10 00:27:00,45.5,42.1,29.94,NE,45,2.0,7.0,88,0.00,,,0.00,meteohub,2013-04-10 04:27:00,
2013-04-10 00:32:00,45.3,41.9,29.95,North,0,4.0,4.0,88,0.00,,,0.00,meteohub,2013-04-10 04:32:00,
2013-04-10 00:37:00,45.1,41.7,29.95,East,90,3.0,5.0,88,0.00,,,0.00,meteohub,2013-04-10 04:37:00,
2013-04-10 00:42:00,45.0,41.5,29.95,NE,45,2.0,5.0,88,0.00,,,0.00,meteohub,2013-04-10 04:42:00,
2013-04-10 00:47:00,45.0,41.5,29.94,NE,45,1.0,5.0,88,0.00,,,0.00,meteohub,2013-04-10 04:47:00,
2013-04-10 01:01:00,44.8,41.4,29.95,NE,45,2.0,2.0,88,0.00,,,0.00,meteohub,2013-04-10 05:01:00,
2013-04-10 01:06:00,44.6,41.2,29.95,East,90,2.0,3.0,88,0.00,,,0.00,meteohub,2013-04-10 05:06:00,
2013-04-10 01:12:00,44.6,41.2,29.95,NE,45,2.0,3.0,88,0.00,,,0.00,meteohub,2013-04-10 05:12:00,
2013-04-10 01:17:00,44.4,41.4,29.95,North,0,2.0,3.0,89,0.00,,,0.00,meteohub,2013-04-10 05:17:00,
2013-04-10 01:22:00,44.4,41.4,29.95,North,0,4.0,4.0,89,0.00,,,0.00,meteohub,2013-04-10 05:22:00,
2013-04-10 01:27:00,44.2,41.2,29.96,East,90,1.0,4.0,89,0.00,,,0.00,meteohub,2013-04-10 05:27:00,
2013-04-10 01:32:00,44.2,41.2,29.96,North,0,2.0,4.0,89,0.00,,,0.00,meteohub,2013-04-10 05:32:00,
2013-04-10 01:37:00,44.1,40.8,29.96,NE,45,2.0,4.0,88,0.01,,,0.01,meteohub,2013-04-10 05:37:00,
2013-04-10 01:42:00,44.1,40.8,29.95,NE,45,2.0,3.0,88,0.01,,,0.01,meteohub,2013-04-10 05:42:00,
2013-04-10 01:47:00,43.9,40.6,29.95,East,90,2.0,3.0,88,0.01,,,0.01,meteohub,2013-04-10 05:47:00,
2013-04-10 01:52:00,43.7,40.5,29.95,NE,45,3.0,3.0,88,0.01,,,0.01,meteohub,2013-04-10 05:52:00,
2013-04-10 01:57:00,43.5,40.3,29.95,North,0,4.0,4.0,88,0.01,,,0.01,meteohub,2013-04-10 05:57:00,
2013-04-10 02:03:00,43.3,40.1,29.95,East,90,2.0,4.0,88,0.01,,,0.01,meteohub,2013-04-10 06:03:00,
2013-04-10 02:08:00,43.3,40.1,29.95,East,90,2.0,4.0,88,0.01,,,0.01,meteohub,2013-04-10 06:08:00,
2013-04-10 02:13:00,43.3,40.1,29.94,East,90,3.0,4.0,88,0.01,,,0.01,meteohub,2013-04-10 06:13:00,
2013-04-10 02:18:00,43.3,40.1,29.94,East,90,2.0,3.0,88,0.01,,,0.01,meteohub,2013-04-10 06:18:00,
2013-04-10 02:23:00,43.3,40.1,29.94,NE,45,2.0,3.0,88,0.01,,,0.01,meteohub,2013-04-10 06:23:00,
2013-04-10 02:29:00,43.3,40.1,29.94,East,90,2.0,4.0,88,0.01,,,0.01,meteohub,2013-04-10 06:29:00,
2013-04-10 02:34:00,43.3,40.1,29.94,NE,45,3.0,4.0,88,0.01,,,0.01,meteohub,2013-04-10 06:34:00,
2013-04-10 02:39:00,43.2,39.9,29.94,NE,45,2.0,3.0,88,0.00,,,0.01,meteohub,2013-04-10 06:39:00,
2013-04-10 02:44:00,43.0,39.7,29.94,East,90,3.0,3.0,88,0.00,,,0.01,meteohub,2013-04-10 06:44:00,
2013-04-10 02:49:00,43.0,39.7,29.94,NE,45,1.0,3.0,88,0.00,,,0.01,meteohub,2013-04-10 06:49:00,
2013-04-10 02:54:00,43.0,39.7,29.94,North,0,1.0,3.0,88,0.00,,,0.01,meteohub,2013-04-10 06:54:00,
2013-04-10 03:00:00,43.0,39.7,29.93,East,90,2.0,3.0,88,0.00,,,0.01,meteohub,2013-04-10 07:00:00,
2013-04-10 03:05:00,42.8,39.6,29.93,North,0,3.0,5.0,88,0.00,,,0.01,meteohub,2013-04-10 07:05:00,
2013-04-10 03:10:00,42.8,39.6,29.92,NE,45,2.0,5.0,88,0.00,,,0.01,meteohub,2013-04-10 07:10:00,
2013-04-10 03:15:00,42.8,39.6,29.92,NE,45,2.0,3.0,88,0.00,,,0.01,meteohub,2013-04-10 07:15:00,
2013-04-10 03:20:00,42.8,39.6,29.91,North,0,2.0,3.0,88,0.00,,,0.01,meteohub,2013-04-10 07:20:00,
2013-04-10 03:26:00,42.6,39.6,29.91,North,0,0.0,3.0,89,0.00,,,0.01,meteohub,2013-04-10 07:26:00,
2013-04-10 03:32:00,42.6,39.6,29.91,East,90,2.0,3.0,89,0.00,,,0.01,meteohub,2013-04-10 07:32:00,
2013-04-10 03:37:00,42.6,39.6,29.90,NE,45,2.0,3.0,89,0.00,,,0.01,meteohub,2013-04-10 07:37:00,
2013-04-10 03:42:00,42.6,39.6,29.91,East,90,2.0,3.0,89,0.00,,,0.01,meteohub,2013-04-10 07:42:00,
2013-04-10 03:47:00,42.4,39.4,29.91,NE,45,2.0,3.0,89,0.00,,,0.01,meteohub,2013-04-10 07:47:00,
2013-04-10 03:52:00,42.4,39.4,29.91,NE,45,0.0,3.0,89,0.00,,,0.01,meteohub,2013-04-10 07:52:00,
2013-04-10 03:57:00,42.4,39.4,29.91,East,90,0.0,3.0,89,0.00,,,0.01,meteohub,2013-04-10 07:57:00,
2013-04-10 04:02:00,42.4,39.4,29.91,NE,45,1.0,3.0,89,0.00,,,0.01,meteohub,2013-04-10 08:02:00,
2013-04-10 04:07:00,42.4,39.4,29.91,NE,45,1.0,2.0,89,0.00,,,0.01,meteohub,2013-04-10 08:07:00,
2013-04-10 04:12:00,42.6,39.9,29.90,SE,135,1.0,2.0,90,0.00,,,0.01,meteohub,2013-04-10 08:12:00,
2013-04-10 04:17:00,42.6,39.9,29.89,East,90,2.0,2.0,90,0.00,,,0.01,meteohub,2013-04-10 08:17:00,
2013-04-10 04:22:00,42.6,39.9,29.89,East,90,1.0,2.0,90,0.00,,,0.01,meteohub,2013-04-10 08:22:00,
2013-04-10 04:27:00,42.6,39.9,29.89,East,90,2.0,2.0,90,0.00,,,0.01,meteohub,2013-04-10 08:27:00,
2013-04-10 04:32:00,42.6,39.9,29.90,East,90,0.0,2.0,90,0.00,,,0.01,meteohub,2013-04-10 08:32:00,
2013-04-10 04:37:00,42.6,39.9,29.90,East,90,0.0,2.0,90,0.00,,,0.01,meteohub,2013-04-10 08:37:00,
2013-04-10 04:42:00,42.6,39.9,29.91,East,90,0.0,2.0,90,0.00,,,0.01,meteohub,2013-04-10 08:42:00,
2013-04-10 04:47:00,42.6,39.9,29.91,South,180,0.0,0.0,90,0.00,,,0.01,meteohub,2013-04-10 08:47:00,
2013-04-10 04:52:00,42.6,39.9,29.91,East,90,2.0,0.0,90,0.00,,,0.01,meteohub,2013-04-10 08:52:00,
2013-04-10 04:57:00,42.6,39.9,29.91,NE,45,2.0,2.0,90,0.00,,,0.01,meteohub,2013-04-10 08:57:00,
2013-04-10 05:02:00,42.8,39.7,29.91,North,0,0.0,2.0,89,0.00,,,0.01,meteohub,2013-04-10 09:02:00,
2013-04-10 05:07:00,42.8,39.7,29.91,East,90,0.0,2.0,89,0.00,,,0.01,meteohub,2013-04-10 09:07:00,
2013-04-10 05:12:00,42.8,39.7,29.91,East,90,0.0,2.0,89,0.00,,,0.01,meteohub,2013-04-10 09:12:00,
2013-04-10 05:17:00,42.8,39.7,29.90,East,90,0.0,0.0,89,0.00,,,0.01,meteohub,2013-04-10 09:17:00,
2013-04-10 05:22:00,42.8,39.7,29.90,East,90,0.0,0.0,89,0.00,,,0.01,meteohub,2013-04-10 09:22:00,
2013-04-10 05:27:00,42.8,39.7,29.89,East,90,2.0,0.0,89,0.00,,,0.01,meteohub,2013-04-10 09:27:00,
2013-04-10 05:32:00,42.8,39.7,29.88,ENE,68,2.0,4.0,89,0.00,,,0.01,meteohub,2013-04-10 09:32:00,
2013-04-10 05:38:00,42.8,39.7,29.89,East,90,2.0,4.0,89,0.00,,,0.01,meteohub,2013-04-10 09:38:00,
2013-04-10 05:43:00,42.8,39.7,29.89,NE,45,2.0,4.0,89,0.00,,,0.01,meteohub,2013-04-10 09:43:00,
2013-04-10 05:48:00,42.8,39.7,29.90,SSE,158,2.0,3.0,89,0.00,,,0.01,meteohub,2013-04-10 09:48:00,
2013-04-10 05:53:00,42.8,39.7,29.89,East,90,0.0,3.0,89,0.00,,,0.01,meteohub,2013-04-10 09:53:00,
2013-04-10 05:58:00,42.8,39.7,29.88,SE,135,2.0,3.0,89,0.00,,,0.01,meteohub,2013-04-10 09:58:00,
2013-04-10 06:03:00,42.8,39.7,29.89,NE,45,2.0,4.0,89,0.00,,,0.01,meteohub,2013-04-10 10:03:00,
2013-04-10 06:08:00,42.8,39.7,29.89,East,90,2.0,4.0,89,0.00,,,0.01,meteohub,2013-04-10 10:08:00,
2013-04-10 06:13:00,42.8,39.7,29.89,East,90,0.0,4.0,89,0.00,,,0.01,meteohub,2013-04-10 10:13:00,
2013-04-10 06:19:00,42.8,39.7,29.88,NE,45,2.0,3.0,89,0.00,,,0.01,meteohub,2013-04-10 10:19:00,
2013-04-10 06:24:00,42.8,39.7,29.89,NE,45,2.0,3.0,89,0.00,,,0.01,meteohub,2013-04-10 10:24:00,
2013-04-10 06:29:00,42.8,39.7,29.90,NE,45,2.0,3.0,89,0.00,,,0.01,meteohub,2013-04-10 10:29:00,
2013-04-10 06:34:00,42.8,39.7,29.91,NNE,23,3.0,3.0,89,0.00,,,0.01,meteohub,2013-04-10 10:34:00,
2013-04-10 06:39:00,42.8,39.7,29.92,NE,45,4.0,4.0,89,0.00,,,0.01,meteohub,2013-04-10 10:39:00,
2013-04-10 06:45:00,42.6,39.9,29.92,North,0,2.0,4.0,90,0.00,,,0.01,meteohub,2013-04-10 10:45:00,
2013-04-10 06:50:00,42.6,39.9,29.92,NE,45,2.0,5.0,90,0.00,,,0.01,meteohub,2013-04-10 10:50:00,
2013-04-10 06:55:00,42.6,39.9,29.91,North,0,4.0,5.0,90,0.00,,,0.01,meteohub,2013-04-10 10:55:00,
2013-04-10 07:00:00,42.3,39.6,29.91,North,0,5.0,5.0,90,0.00,,,0.01,meteohub,2013-04-10 11:00:00,
2013-04-10 07:05:00,42.1,39.4,29.92,North,0,3.0,5.0,90,0.00,,,0.01,meteohub,2013-04-10 11:05:00,
2013-04-10 07:10:00,42.1,39.4,29.92,West,270,3.0,5.0,90,0.00,,,0.01,meteohub,2013-04-10 11:10:00,
2013-04-10 07:16:00,41.9,39.2,29.92,NE,45,4.0,5.0,90,0.00,,,0.01,meteohub,2013-04-10 11:16:00,
2013-04-10 07:21:00,41.7,39.0,29.91,East,90,4.0,6.0,90,0.00,,,0.01,meteohub,2013-04-10 11:21:00,
2013-04-10 07:26:00,41.4,38.7,29.91,NE,45,4.0,6.0,90,0.00,,,0.01,meteohub,2013-04-10 11:26:00,
2013-04-10 07:31:00,41.2,38.5,29.92,East,90,3.0,7.0,90,0.00,,,0.01,meteohub,2013-04-10 11:31:00,
2013-04-10 07:37:00,41.0,38.3,29.92,NE,45,3.0,7.0,90,0.00,,,0.01,meteohub,2013-04-10 11:37:00,
2013-04-10 07:42:00,40.8,38.1,29.93,North,0,3.0,7.0,90,0.00,,,0.01,meteohub,2013-04-10 11:42:00,
2013-04-10 07:47:00,40.6,37.9,29.94,NE,45,4.0,8.0,90,0.00,,,0.01,meteohub,2013-04-10 11:47:00,
2013-04-10 07:52:00,40.5,37.8,29.93,North,0,4.0,8.0,90,0.00,,,0.01,meteohub,2013-04-10 11:52:00,
2013-04-10 07:57:00,40.3,37.6,29.93,NE,45,4.0,8.0,90,0.00,,,0.01,meteohub,2013-04-10 11:57:00,
2013-04-10 08:02:00,40.3,37.6,29.92,NE,45,4.0,6.0,90,0.00,,,0.01,meteohub,2013-04-10 12:02:00,
2013-04-10 08:07:00,40.1,37.4,29.92,NE,45,4.0,6.0,90,0.00,,,0.01,meteohub,2013-04-10 12:07:00,
2013-04-10 08:12:00,40.1,37.4,29.91,NE,45,2.0,4.0,90,0.00,,,0.01,meteohub,2013-04-10 12:12:00,
2013-04-10 08:17:00,40.1,37.4,29.91,SE,135,2.0,4.0,90,0.00,,,0.01,meteohub,2013-04-10 12:17:00,
2013-04-10 08:23:00,40.1,37.4,29.91,North,0,4.0,4.0,90,0.00,,,0.01,meteohub,2013-04-10 12:23:00,
2013-04-10 08:28:00,40.1,37.4,29.91,East,90,4.0,5.0,90,0.00,,,0.01,meteohub,2013-04-10 12:28:00,
2013-04-10 08:33:00,40.1,37.4,29.92,NE,45,3.0,5.0,90,0.00,,,0.01,meteohub,2013-04-10 12:33:00,
2013-04-10 08:38:00,40.1,37.4,29.92,NE,45,3.0,5.0,90,0.00,,,0.01,meteohub,2013-04-10 12:38:00,
2013-04-10 08:43:00,40.1,37.4,29.93,NE,45,4.0,5.0,90,0.00,,,0.01,meteohub,2013-04-10 12:43:00,
2013-04-10 08:49:00,39.9,37.2,29.93,NNE,23,2.0,5.0,90,0.00,,,0.01,meteohub,2013-04-10 12:49:00,
2013-04-10 08:54:00,39.9,37.2,29.92,North,0,2.0,5.0,90,0.00,,,0.01,meteohub,2013-04-10 12:54:00,
2013-04-10 08:59:00,40.1,37.4,29.92,East,90,3.0,5.0,90,0.00,,,0.01,meteohub,2013-04-10 12:59:00,
2013-04-10 09:04:00,40.1,37.4,29.91,East,90,2.0,5.0,90,0.00,,,0.01,meteohub,2013-04-10 13:04:00,
2013-04-10 09:09:00,40.1,37.4,29.90,East,90,4.0,4.0,90,0.00,,,0.01,meteohub,2013-04-10 13:09:00,
2013-04-10 09:15:00,40.1,37.4,29.90,East,90,4.0,4.0,90,0.00,,,0.01,meteohub,2013-04-10 13:15:00,
2013-04-10 09:20:00,40.1,37.4,29.91,East,90,2.0,7.0,90,0.00,,,0.01,meteohub,2013-04-10 13:20:00,
2013-04-10 09:25:00,40.1,37.4,29.91,NE,45,2.0,7.0,90,0.00,,,0.01,meteohub,2013-04-10 13:25:00,
2013-04-10 09:30:00,40.1,37.4,29.91,East,90,2.0,7.0,90,0.00,,,0.01,meteohub,2013-04-10 13:30:00,
2013-04-10 09:35:00,40.3,37.6,29.89,East,90,2.0,4.0,90,0.00,,,0.01,meteohub,2013-04-10 13:35:00,
2013-04-10 09:40:00,40.3,37.6,29.89,East,90,1.0,4.0,90,0.00,,,0.01,meteohub,2013-04-10 13:40:00,
2013-04-10 09:46:00,40.5,37.8,29.89,East,90,3.0,4.0,90,0.00,,,0.01,meteohub,2013-04-10 13:46:00,
2013-04-10 09:51:00,40.5,37.8,29.89,NE,45,4.0,4.0,90,0.00,,,0.01,meteohub,2013-04-10 13:51:00,
2013-04-10 09:56:00,40.6,37.9,29.90,East,90,2.0,4.0,90,0.00,,,0.01,meteohub,2013-04-10 13:56:00,
2013-04-10 10:01:00,40.6,37.9,29.89,SW,225,0.0,4.0,90,0.00,,,0.01,meteohub,2013-04-10 14:01:00,
2013-04-10 10:07:00,40.8,38.5,29.89,NE,45,3.0,4.0,91,0.00,,,0.01,meteohub,2013-04-10 14:07:00,
2013-04-10 10:12:00,41.0,38.3,29.88,East,90,3.0,3.0,90,0.00,,,0.01,meteohub,2013-04-10 14:12:00,
2013-04-10 10:17:00,41.0,38.3,29.88,East,90,4.0,4.0,90,0.00,,,0.01,meteohub,2013-04-10 14:17:00,
2013-04-10 10:22:00,41.2,38.5,29.86,East,90,2.0,4.0,90,0.00,,,0.01,meteohub,2013-04-10 14:22:00,
2013-04-10 10:27:00,41.4,38.7,29.86,NE,45,2.0,4.0,90,0.00,,,0.01,meteohub,2013-04-10 14:27:00,
2013-04-10 10:32:00,41.4,38.7,29.86,East,90,3.0,4.0,90,0.00,,,0.01,meteohub,2013-04-10 14:32:00,
2013-04-10 10:37:00,41.5,38.8,29.86,NW,315,2.0,4.0,90,0.00,,,0.01,meteohub,2013-04-10 14:37:00,
2013-04-10 10:42:00,41.7,39.0,29.86,ESE,113,3.0,4.0,90,0.00,,,0.01,meteohub,2013-04-10 14:42:00,
2013-04-10 10:47:00,41.7,39.2,29.87,East,90,2.0,4.0,91,0.00,,,0.01,meteohub,2013-04-10 14:47:00,
2013-04-10 10:53:00,41.9,39.4,29.87,SE,135,2.0,3.0,91,0.00,,,0.01,meteohub,2013-04-10 14:53:00,
2013-04-10 10:58:00,42.1,39.6,29.87,NE,45,5.0,5.0,91,0.00,,,0.01,meteohub,2013-04-10 14:58:00,
2013-04-10 11:03:00,42.1,39.6,29.87,East,90,3.0,4.0,91,0.00,,,0.01,meteohub,2013-04-10 15:03:00,
2013-04-10 11:08:00,42.1,39.6,29.88,East,90,2.0,5.0,91,0.00,,,0.01,meteohub,2013-04-10 15:08:00,
2013-04-10 11:13:00,42.3,39.7,29.88,NE,45,3.0,5.0,91,0.00,,,0.01,meteohub,2013-04-10 15:13:00,
2013-04-10 11:19:00,42.3,39.7,29.88,NE,45,0.0,4.0,91,0.00,,,0.01,meteohub,2013-04-10 15:19:00,
2013-04-10 11:24:00,42.4,39.9,29.88,NE,45,2.0,4.0,91,0.00,,,0.01,meteohub,2013-04-10 15:24:00,
2013-04-10 11:29:00,42.4,39.9,29.89,North,0,2.0,4.0,91,0.00,,,0.01,meteohub,2013-04-10 15:29:00,
2013-04-10 11:34:00,42.4,39.9,29.88,East,90,0.0,3.0,91,0.00,,,0.01,meteohub,2013-04-10 15:34:00,
2013-04-10 11:39:00,42.6,40.1,29.88,South,180,0.0,3.0,91,0.00,,,0.01,meteohub,2013-04-10 15:39:00,
2013-04-10 11:44:00,42.6,40.1,29.94,NW,315,5.0,5.0,91,0.00,,,0.01,meteohub,2013-04-10 15:44:00,
2013-04-10 11:50:00,42.6,40.1,29.97,NE,45,8.0,8.0,91,0.01,,,0.02,meteohub,2013-04-10 15:50:00,
2013-04-10 11:55:00,42.4,39.9,29.98,West,270,4.0,8.0,91,0.02,,,0.04,meteohub,2013-04-10 15:55:00,
2013-04-10 12:00:00,42.3,39.7,29.90,East,90,4.0,8.0,91,0.12,,,0.13,meteohub,2013-04-10 16:00:00,
2013-04-10 12:05:00,41.9,39.4,29.91,NW,315,2.0,7.0,91,0.20,,,0.21,meteohub,2013-04-10 16:05:00,
2013-04-10 12:10:00,41.9,39.4,29.92,NE,45,4.0,7.0,91,0.21,,,0.22,meteohub,2013-04-10 16:10:00,
2013-04-10 12:16:00,41.9,39.4,29.93,North,0,2.0,4.0,91,0.21,,,0.22,meteohub,2013-04-10 16:16:00,
2013-04-10 12:21:00,41.9,39.4,29.93,North,0,3.0,4.0,91,0.21,,,0.22,meteohub,2013-04-10 16:21:00,
2013-04-10 12:26:00,41.9,39.4,29.92,NE,45,2.0,4.0,91,0.21,,,0.22,meteohub,2013-04-10 16:26:00,
2013-04-10 12:32:00,41.9,39.4,29.92,NE,45,0.0,4.0,91,0.22,,,0.24,meteohub,2013-04-10 16:32:00,
2013-04-10 12:37:00,41.9,39.4,29.92,North,0,2.0,4.0,91,0.24,,,0.25,meteohub,2013-04-10 16:37:00,
2013-04-10 12:42:00,41.7,39.2,29.93,NE,45,3.0,3.0,91,0.24,,,0.25,meteohub,2013-04-10 16:42:00,
2013-04-10 12:47:00,41.7,39.2,29.90,NE,45,3.0,3.0,91,0.22,,,0.25,meteohub,2013-04-10 16:47:00,
2013-04-10 12:52:00,41.9,39.4,29.88,East,90,2.0,3.0,91,0.24,,,0.25,meteohub,2013-04-10 16:52:00,
2013-04-10 12:57:00,41.9,39.4,29.85,East,90,4.0,4.0,91,0.21,,,0.26,meteohub,2013-04-10 16:57:00,
2013-04-10 13:02:00,41.9,39.4,29.81,East,90,4.0,5.0,91,0.11,,,0.27,meteohub,2013-04-10 17:02:00,
2013-04-10 13:07:00,41.9,39.7,29.82,East,90,5.0,5.0,92,0.05,,,0.27,meteohub,2013-04-10 17:07:00,
2013-04-10 13:13:00,41.9,39.7,29.81,East,90,7.0,7.0,92,0.05,,,0.27,meteohub,2013-04-10 17:13:00,
2013-04-10 13:18:00,42.1,39.9,29.83,East,90,3.0,7.0,92,0.05,,,0.27,meteohub,2013-04-10 17:18:00,
2013-04-10 13:23:00,42.4,40.3,29.83,NE,45,4.0,7.0,92,0.05,,,0.27,meteohub,2013-04-10 17:23:00,
2013-04-10 13:28:00,43.0,40.5,29.85,South,180,2.0,7.0,91,0.05,,,0.27,meteohub,2013-04-10 17:28:00,
2013-04-10 13:33:00,43.3,41.2,29.85,East,90,2.0,4.0,92,0.04,,,0.27,meteohub,2013-04-10 17:33:00,
2013-04-10 13:38:00,43.5,41.4,29.85,East,90,3.0,4.0,92,0.02,,,0.27,meteohub,2013-04-10 17:38:00,
2013-04-10 13:44:00,43.5,41.4,29.84,ENE,68,2.0,4.0,92,0.02,,,0.27,meteohub,2013-04-10 17:44:00,
2013-04-10 13:49:00,43.5,41.4,29.89,West,270,2.0,4.0,92,0.02,,,0.27,meteohub,2013-04-10 17:49:00,
2013-04-10 13:54:00,43.7,41.5,29.90,North,0,3.0,4.0,92,0.01,,,0.27,meteohub,2013-04-10 17:54:00,
2013-04-10 13:59:00,43.7,41.5,29.88,East,90,2.0,4.0,92,0.02,,,0.28,meteohub,2013-04-10 17:59:00,
2013-04-10 14:04:00,43.9,41.7,29.88,NE,45,2.0,4.0,92,0.01,,,0.28,meteohub,2013-04-10 18:04:00,
2013-04-10 14:10:00,44.1,41.9,29.86,East,90,2.0,3.0,92,0.01,,,0.28,meteohub,2013-04-10 18:10:00,
2013-04-10 14:15:00,44.1,41.9,29.84,NE,45,2.0,3.0,92,0.01,,,0.28,meteohub,2013-04-10 18:15:00,
2013-04-10 14:20:00,44.2,42.1,29.83,NE,45,3.0,3.0,92,0.01,,,0.28,meteohub,2013-04-10 18:20:00,
2013-04-10 14:25:00,44.2,42.1,29.84,North,0,2.0,3.0,92,0.01,,,0.28,meteohub,2013-04-10 18:25:00,
2013-04-10 14:30:00,44.2,42.1,29.85,NE,45,0.0,3.0,92,0.01,,,0.28,meteohub,2013-04-10 18:30:00,
2013-04-10 14:35:00,44.4,42.3,29.85,NE,45,2.0,3.0,92,0.01,,,0.28,meteohub,2013-04-10 18:35:00,
2013-04-10 14:40:00,44.4,42.3,29.85,East,90,3.0,3.0,92,0.01,,,0.28,meteohub,2013-04-10 18:40:00,
2013-04-10 14:45:00,44.6,42.1,29.86,East,90,2.0,3.0,91,0.01,,,0.28,meteohub,2013-04-10 18:45:00,
2013-04-10 14:51:00,44.6,42.1,29.86,SE,135,2.0,3.0,91,0.01,,,0.28,meteohub,2013-04-10 18:51:00,
2013-04-10 14:56:00,44.6,42.1,29.87,North,0,2.0,3.0,91,0.00,,,0.28,meteohub,2013-04-10 18:56:00,
2013-04-10 15:01:00,44.8,42.3,29.87,North,0,4.0,4.0,91,0.00,,,0.28,meteohub,2013-04-10 19:01:00,
2013-04-10 15:06:00,44.8,42.3,29.87,North,0,4.0,7.0,91,0.00,,,0.28,meteohub,2013-04-10 19:06:00,
2013-04-10 15:11:00,45.0,42.4,29.87,North,0,2.0,7.0,91,0.00,,,0.28,meteohub,2013-04-10 19:11:00,
2013-04-10 15:17:00,45.1,42.6,29.86,North,0,3.0,7.0,91,0.00,,,0.28,meteohub,2013-04-10 19:17:00,
2013-04-10 15:22:00,45.1,42.6,29.87,North,0,8.0,8.0,91,0.00,,,0.28,meteohub,2013-04-10 19:22:00,
2013-04-10 15:27:00,45.3,42.8,29.88,North,0,4.0,8.0,91,0.00,,,0.28,meteohub,2013-04-10 19:27:00,
2013-04-10 15:32:00,45.1,42.6,29.88,NW,315,5.0,8.0,91,0.00,,,0.28,meteohub,2013-04-10 19:32:00,
2013-04-10 15:37:00,44.6,41.9,29.89,NE,45,2.0,8.0,90,0.00,,,0.28,meteohub,2013-04-10 19:37:00,
2013-04-10 15:42:00,44.4,41.7,29.88,NW,315,4.0,8.0,90,0.00,,,0.28,meteohub,2013-04-10 19:42:00,
2013-04-10 15:47:00,44.2,41.5,29.88,North,0,6.0,8.0,90,0.00,,,0.28,meteohub,2013-04-10 19:47:00,
2013-04-10 15:52:00,43.7,40.6,29.89,NE,45,4.0,8.0,89,0.00,,,0.28,meteohub,2013-04-10 19:52:00,
2013-04-10 15:58:00,43.5,40.5,29.90,NE,45,4.0,11.0,89,0.00,,,0.28,meteohub,2013-04-10 19:58:00,
2013-04-10 16:03:00,43.2,39.9,29.89,North,0,8.0,11.0,88,0.00,,,0.28,meteohub,2013-04-10 20:03:00,
2013-04-10 16:08:00,42.8,39.6,29.89,North,0,6.0,11.0,88,0.00,,,0.28,meteohub,2013-04-10 20:08:00,
2013-04-10 16:13:00,42.6,39.6,29.91,NE,45,3.0,8.0,89,0.00,,,0.28,meteohub,2013-04-10 20:13:00,
2013-04-10 16:18:00,42.6,39.6,29.92,North,0,2.0,8.0,89,0.00,,,0.28,meteohub,2013-04-10 20:18:00,
2013-04-10 16:23:00,42.4,39.4,29.92,NE,45,4.0,8.0,89,0.00,,,0.28,meteohub,2013-04-10 20:23:00,
2013-04-10 16:28:00,42.3,39.2,29.91,North,0,6.0,6.0,89,0.00,,,0.28,meteohub,2013-04-10 20:28:00,
2013-04-10 16:34:00,42.1,39.0,29.91,North,0,7.0,7.0,89,0.00,,,0.28,meteohub,2013-04-10 20:34:00,
2013-04-10 16:39:00,41.9,38.8,29.91,NE,45,4.0,6.0,89,0.00,,,0.28,meteohub,2013-04-10 20:39:00,
2013-04-10 16:44:00,42.1,39.0,29.91,North,0,3.0,7.0,89,0.00,,,0.28,meteohub,2013-04-10 20:44:00,
2013-04-10 16:50:00,42.1,39.4,29.92,North,0,5.0,7.0,90,0.00,,,0.28,meteohub,2013-04-10 20:50:00,
2013-04-10 16:55:00,42.1,39.4,29.92,East,90,3.0,8.0,90,0.00,,,0.28,meteohub,2013-04-10 20:55:00,
2013-04-10 17:00:00,42.1,39.4,29.92,NE,45,7.0,8.0,90,0.00,,,0.28,meteohub,2013-04-10 21:00:00,
2013-04-10 17:05:00,42.1,39.4,29.93,North,0,4.0,8.0,90,0.00,,,0.28,meteohub,2013-04-10 21:05:00,
2013-04-10 17:10:00,42.1,39.4,29.92,East,90,3.0,7.0,90,0.00,,,0.28,meteohub,2013-04-10 21:10:00,
2013-04-10 17:15:00,42.3,39.6,29.92,East,90,5.0,6.0,90,0.00,,,0.28,meteohub,2013-04-10 21:15:00,
2013-04-10 17:21:00,42.3,39.6,29.92,North,0,6.0,6.0,90,0.00,,,0.28,meteohub,2013-04-10 21:21:00,
2013-04-10 17:26:00,42.3,39.6,29.92,NE,45,6.0,8.0,90,0.00,,,0.28,meteohub,2013-04-10 21:26:00,
2013-04-10 17:31:00,42.1,39.4,29.92,North,0,2.0,8.0,90,0.00,,,0.28,meteohub,2013-04-10 21:31:00,
2013-04-10 17:37:00,42.1,39.0,29.92,NNE,23,5.0,8.0,89,0.00,,,0.28,meteohub,2013-04-10 21:37:00,
2013-04-10 17:42:00,42.1,39.0,29.93,NE,45,4.0,7.0,89,0.00,,,0.28,meteohub,2013-04-10 21:42:00,
2013-04-10 17:47:00,41.9,38.8,29.93,NE,45,3.0,5.0,89,0.00,,,0.28,meteohub,2013-04-10 21:47:00,
2013-04-10 17:52:00,41.9,38.8,29.92,North,0,4.0,5.0,89,0.00,,,0.28,meteohub,2013-04-10 21:52:00,
2013-04-10 17:57:00,41.7,38.7,29.91,NE,45,5.0,5.0,89,0.00,,,0.28,meteohub,2013-04-10 21:57:00,
2013-04-10 18:02:00,41.7,38.7,29.90,NE,45,4.0,8.0,89,0.00,,,0.28,meteohub,2013-04-10 22:02:00,
2013-04-10 18:07:00,41.5,38.5,29.92,NE,45,2.0,8.0,89,0.00,,,0.28,meteohub,2013-04-10 22:07:00,
2013-04-10 18:12:00,41.5,38.5,29.91,NE,45,5.0,8.0,89,0.00,,,0.28,meteohub,2013-04-10 22:12:00,
2013-04-10 18:18:00,41.5,38.5,29.89,NE,45,3.0,8.0,89,0.00,,,0.28,meteohub,2013-04-10 22:18:00,
2013-04-10 18:23:00,41.5,38.5,29.88,North,0,4.0,5.0,89,0.00,,,0.28,meteohub,2013-04-10 22:23:00,
2013-04-10 18:28:00,41.5,38.5,29.89,East,90,2.0,5.0,89,0.00,,,0.28,meteohub,2013-04-10 22:28:00,
2013-04-10 18:33:00,41.5,38.5,29.88,North,0,4.0,4.0,89,0.00,,,0.28,meteohub,2013-04-10 22:33:00,
2013-04-10 18:39:00,41.5,38.5,29.88,North,0,3.0,5.0,89,0.00,,,0.28,meteohub,2013-04-10 22:39:00,
2013-04-10 18:44:00,41.5,38.5,29.89,NE,45,4.0,5.0,89,0.00,,,0.28,meteohub,2013-04-10 22:44:00,
2013-04-10 18:49:00,41.4,38.7,29.90,East,90,3.0,7.0,90,0.00,,,0.28,meteohub,2013-04-10 22:49:00,
2013-04-10 18:54:00,41.2,38.1,29.91,NE,45,5.0,7.0,89,0.00,,,0.28,meteohub,2013-04-10 22:54:00,
2013-04-10 18:59:00,41.2,38.1,29.91,North,0,2.0,7.0,89,0.00,,,0.28,meteohub,2013-04-10 22:59:00,
2013-04-10 19:04:00,41.0,37.9,29.92,NE,45,3.0,5.0,89,0.00,,,0.28,meteohub,2013-04-10 23:04:00,
2013-04-10 19:10:00,41.0,37.9,29.91,East,90,2.0,5.0,89,0.00,,,0.28,meteohub,2013-04-10 23:10:00,
2013-04-10 19:15:00,41.0,37.9,29.91,North,0,4.0,5.0,89,0.00,,,0.28,meteohub,2013-04-10 23:15:00,
2013-04-10 19:20:00,40.8,38.1,29.91,North,0,4.0,4.0,90,0.00,,,0.28,meteohub,2013-04-10 23:20:00,
2013-04-10 19:25:00,40.6,37.9,29.91,NE,45,2.0,4.0,90,0.00,,,0.28,meteohub,2013-04-10 23:25:00,
2013-04-10 19:30:00,40.6,37.9,29.92,NE,45,2.0,4.0,90,0.00,,,0.28,meteohub,2013-04-10 23:30:00,
2013-04-10 19:36:00,40.6,37.9,29.93,East,90,3.0,4.0,90,0.00,,,0.28,meteohub,2013-04-10 23:36:00,
2013-04-10 19:41:00,40.6,37.9,29.93,North,0,3.0,4.0,90,0.00,,,0.28,meteohub,2013-04-10 23:41:00,
2013-04-10 19:46:00,40.6,37.9,29.92,ESE,113,2.0,4.0,90,0.00,,,0.28,meteohub,2013-04-10 23:46:00,
2013-04-10 19:51:00,40.6,37.9,29.92,North,0,3.0,4.0,90,0.00,,,0.28,meteohub,2013-04-10 23:51:00,
2013-04-10 19:56:00,40.6,37.9,29.92,SE,135,3.0,4.0,90,0.00,,,0.28,meteohub,2013-04-10 23:56:00,
2013-04-10 20:02:00,40.6,37.9,29.92,NE,45,2.0,4.0,90,0.00,,,0.28,meteohub,2013-04-11 00:02:00,
2013-04-10 20:07:00,40.6,37.9,29.93,NE,45,4.0,6.0,90,0.00,,,0.28,meteohub,2013-04-11 00:07:00,
2013-04-10 20:12:00,40.6,37.9,29.92,South,180,5.0,6.0,90,0.00,,,0.28,meteohub,2013-04-11 00:12:00,
2013-04-10 20:17:00,40.5,37.8,29.92,North,0,4.0,6.0,90,0.00,,,0.28,meteohub,2013-04-11 00:17:00,
2013-04-10 20:23:00,40.5,37.8,29.92,NW,315,2.0,6.0,90,0.00,,,0.28,meteohub,2013-04-11 00:23:00,
2013-04-10 20:28:00,40.5,37.8,29.92,NW,315,3.0,5.0,90,0.00,,,0.28,meteohub,2013-04-11 00:28:00,
2013-04-10 20:33:00,40.5,37.8,29.92,East,90,3.0,5.0,90,0.00,,,0.28,meteohub,2013-04-11 00:33:00,
2013-04-10 20:38:00,40.5,37.8,29.93,East,90,2.0,5.0,90,0.00,,,0.28,meteohub,2013-04-11 00:38:00,
2013-04-10 20:43:00,40.5,37.8,29.93,East,90,2.0,5.0,90,0.00,,,0.28,meteohub,2013-04-11 00:43:00,
2013-04-10 20:48:00,40.5,37.8,29.93,NE,45,2.0,5.0,90,0.00,,,0.28,meteohub,2013-04-11 00:48:00,
2013-04-10 20:54:00,40.6,37.9,29.94,NE,45,2.0,4.0,90,0.00,,,0.28,meteohub,2013-04-11 00:54:00,
2013-04-10 20:59:00,40.6,37.9,29.94,NE,45,2.0,4.0,90,0.00,,,0.28,meteohub,2013-04-11 00:59:00,
2013-04-10 21:04:00,40.6,37.9,29.94,NE,45,4.0,4.0,90,0.00,,,0.28,meteohub,2013-04-11 01:04:00,
2013-04-10 21:09:00,40.6,37.9,29.93,East,90,2.0,4.0,90,0.00,,,0.28,meteohub,2013-04-11 01:09:00,
2013-04-10 21:14:00,40.5,37.8,29.93,NE,45,2.0,4.0,90,0.00,,,0.28,meteohub,2013-04-11 01:14:00,
2013-04-10 21:19:00,40.5,37.8,29.94,South,180,2.0,4.0,90,0.00,,,0.28,meteohub,2013-04-11 01:19:00,
2013-04-10 21:25:00,40.5,37.8,29.94,NE,45,2.0,4.0,90,0.00,,,0.28,meteohub,2013-04-11 01:25:00,
2013-04-10 21:30:00,40.5,37.8,29.91,East,90,3.0,4.0,90,0.00,,,0.28,meteohub,2013-04-11 01:30:00,
2013-04-10 21:35:00,40.5,37.8,29.91,NE,45,4.0,4.0,90,0.00,,,0.28,meteohub,2013-04-11 01:35:00,
2013-04-10 21:40:00,40.3,37.6,29.92,NE,45,4.0,4.0,90,0.00,,,0.28,meteohub,2013-04-11 01:40:00,
2013-04-10 21:45:00,40.3,37.6,29.91,ENE,68,3.0,4.0,90,0.00,,,0.28,meteohub,2013-04-11 01:45:00,
2013-04-10 21:50:00,40.3,37.6,29.91,West,270,2.0,4.0,90,0.00,,,0.28,meteohub,2013-04-11 01:50:00,
2013-04-10 21:56:00,40.1,37.4,29.91,SE,135,4.0,4.0,90,0.00,,,0.28,meteohub,2013-04-11 01:56:00,
2013-04-10 22:01:00,40.1,37.4,29.91,NE,45,3.0,4.0,90,0.00,,,0.28,meteohub,2013-04-11 02:01:00,
2013-04-10 22:06:00,39.9,37.2,29.91,East,90,4.0,4.0,90,0.00,,,0.28,meteohub,2013-04-11 02:06:00,
2013-04-10 22:11:00,39.9,37.2,29.92,NE,45,2.0,5.0,90,0.00,,,0.28,meteohub,2013-04-11 02:11:00,
2013-04-10 22:16:00,39.9,37.2,29.91,ESE,113,2.0,5.0,90,0.00,,,0.28,meteohub,2013-04-11 02:16:00,
2013-04-10 22:21:00,39.7,37.0,29.90,NE,45,3.0,4.0,90,0.00,,,0.28,meteohub,2013-04-11 02:21:00,
2013-04-10 22:26:00,39.6,36.9,29.91,East,90,4.0,4.0,90,0.00,,,0.28,meteohub,2013-04-11 02:26:00,
2013-04-10 22:31:00,39.6,36.9,29.91,East,90,4.0,4.0,90,0.00,,,0.28,meteohub,2013-04-11 02:31:00,
2013-04-10 22:37:00,39.4,36.7,29.92,East,90,3.0,6.0,90,0.00,,,0.28,meteohub,2013-04-11 02:37:00,
2013-04-10 22:42:00,39.4,36.7,29.93,NE,45,2.0,6.0,90,0.00,,,0.28,meteohub,2013-04-11 02:42:00,
2013-04-10 22:47:00,39.4,36.7,29.94,NE,45,2.0,6.0,90,0.00,,,0.28,meteohub,2013-04-11 02:47:00,
2013-04-10 22:52:00,39.4,36.7,29.94,NE,45,4.0,4.0,90,0.00,,,0.28,meteohub,2013-04-11 02:52:00,
2013-04-10 22:57:00,39.4,36.7,29.95,SE,135,0.0,4.0,90,0.00,,,0.28,meteohub,2013-04-11 02:57:00,
2013-04-10 23:02:00,39.4,36.7,29.95,NE,45,0.0,4.0,90,0.00,,,0.28,meteohub,2013-04-11 03:02:00,
2013-04-10 23:07:00,39.4,37.0,29.94,East,90,3.0,4.0,91,0.00,,,0.28,meteohub,2013-04-11 03:07:00,
2013-04-10 23:12:00,39.4,37.0,29.94,NE,45,2.0,4.0,91,0.00,,,0.28,meteohub,2013-04-11 03:12:00,
2013-04-10 23:17:00,39.4,37.0,29.93,WNW,293,2.0,4.0,91,0.00,,,0.28,meteohub,2013-04-11 03:17:00,
2013-04-10 23:22:00,39.4,37.0,29.94,WNW,293,2.0,4.0,91,0.00,,,0.28,meteohub,2013-04-11 03:22:00,
2013-04-10 23:27:00,39.2,36.9,29.94,SE,135,2.0,4.0,91,0.00,,,0.28,meteohub,2013-04-11 03:27:00,
2013-04-10 23:32:00,39.0,36.9,29.94,North,0,2.0,4.0,92,0.00,,,0.28,meteohub,2013-04-11 03:32:00,
2013-04-10 23:37:00,39.0,36.9,29.93,NW,315,2.0,4.0,92,0.00,,,0.28,meteohub,2013-04-11 03:37:00,
2013-04-10 23:42:00,39.0,36.9,29.93,West,270,3.0,4.0,92,0.00,,,0.28,meteohub,2013-04-11 03:42:00,
2013-04-10 23:47:00,38.8,36.7,29.93,East,90,5.0,5.0,92,0.00,,,0.28,meteohub,2013-04-11 03:47:00,
2013-04-10 23:52:00,38.8,36.7,29.93,North,0,4.0,6.0,92,0.00,,,0.28,meteohub,2013-04-11 03:52:00,
2013-04-10 23:57:00,38.7,36.5,29.93,NE,45,4.0,6.0,92,0.00,,,0.28,meteohub,2013-04-11 03:57:00,